createdAt,value
2022-12-09T00:00:01.281Z,20.90
2022-12-09T00:02:25.041Z,20.93
2022-12-09T00:04:49.089Z,20.53
2022-12-09T00:07:14.282Z,20.73
2022-12-09T00:09:38.218Z,21.47
2022-12-09T00:12:01.764Z,21.77
2022-12-09T00:14:25.730Z,22.00
2022-12-09T00:16:49.289Z,21.63
2022-12-09T00:19:13.082Z,21.07
2022-12-09T00:21:37.220Z,20.03
2022-12-09T00:24:04.661Z,21.20
2022-12-09T00:26:29.453Z,20.83
2022-12-09T00:28:54.557Z,20.00
2022-12-09T00:31:24.428Z,19.60
2022-12-09T00:33:48.369Z,20.03
2022-12-09T00:36:14.521Z,19.20
2022-12-09T00:38:38.793Z,18.20
2022-12-09T00:41:04.467Z,18.40
2022-12-09T00:43:28.431Z,17.50
2022-12-09T00:45:52.247Z,18.00
2022-12-09T00:48:16.163Z,17.93
2022-12-09T00:50:40.887Z,18.20
2022-12-09T00:53:04.788Z,17.83
2022-12-09T00:55:28.725Z,17.43
2022-12-09T00:57:53.705Z,16.87
2022-12-09T01:00:18.440Z,17.73
2022-12-09T01:02:42.144Z,17.07
2022-12-09T01:05:07.534Z,17.13
2022-12-09T01:07:31.311Z,15.97
2022-12-09T01:09:54.881Z,16.90
2022-12-09T01:12:19.772Z,17.40
2022-12-09T01:14:44.787Z,17.57
2022-12-09T01:17:08.692Z,17.73
2022-12-09T01:19:32.351Z,18.17
2022-12-09T01:21:56.089Z,20.33
2022-12-09T01:24:20.968Z,18.17
2022-12-09T01:26:46.089Z,18.33
2022-12-09T01:29:10.354Z,18.27
2022-12-09T01:31:35.793Z,18.07
2022-12-09T01:33:59.981Z,18.93
2022-12-09T01:36:27.893Z,18.10
2022-12-09T01:38:51.547Z,18.73
2022-12-09T01:41:15.512Z,18.67
2022-12-09T01:43:39.709Z,19.77
2022-12-09T01:46:03.522Z,18.10
2022-12-09T01:48:32.304Z,19.03
2022-12-09T01:51:00.150Z,17.90
2022-12-09T01:53:29.565Z,18.37
2022-12-09T01:55:55.038Z,17.57
2022-12-09T01:58:19.846Z,17.00
2022-12-09T02:00:44.569Z,17.83
2022-12-09T02:03:08.961Z,19.13
2022-12-09T02:05:34.836Z,18.93
2022-12-09T02:07:59.514Z,17.47
2022-12-09T02:10:23.713Z,19.00
2022-12-09T02:13:14.649Z,18.30
2022-12-09T02:15:44.981Z,17.90
2022-12-09T02:18:17.568Z,18.83
2022-12-09T02:20:47.010Z,18.23
2022-12-09T02:23:21.190Z,17.80
2022-12-09T02:25:49.498Z,18.40
2022-12-09T02:28:51.650Z,18.17
2022-12-09T02:31:34.020Z,18.33
2022-12-09T02:34:12.946Z,18.03
2022-12-09T02:36:53.889Z,18.37
2022-12-09T02:39:18.105Z,17.60
2022-12-09T02:41:45.574Z,19.03
2022-12-09T02:44:15.208Z,18.10
2022-12-09T02:46:41.164Z,18.07
2022-12-09T02:49:08.652Z,19.50
2022-12-09T02:51:37.201Z,19.30
2022-12-09T02:54:17.181Z,20.03
2022-12-09T02:56:47.412Z,19.77
2022-12-09T02:59:11.304Z,19.00
2022-12-09T03:01:44.717Z,18.93
2022-12-09T03:04:13.988Z,18.90
2022-12-09T03:06:43.787Z,19.67
2022-12-09T03:09:12.037Z,19.13
2022-12-09T03:11:35.959Z,18.60
2022-12-09T03:14:05.074Z,19.67
2022-12-09T03:16:38.358Z,19.53
2022-12-09T03:19:06.999Z,18.63
2022-12-09T03:21:36.021Z,20.40
2022-12-09T03:24:01.875Z,18.87
2022-12-09T03:26:29.410Z,20.30
2022-12-09T03:28:54.603Z,20.00
2022-12-09T03:31:22.353Z,18.80
2022-12-09T03:33:50.729Z,20.33
2022-12-09T03:36:15.627Z,18.90
2022-12-09T03:38:42.791Z,20.50
2022-12-09T03:41:13.673Z,19.53
2022-12-09T03:43:42.311Z,19.23
2022-12-09T03:46:06.492Z,19.33
2022-12-09T03:48:30.480Z,20.10
2022-12-09T03:50:59.688Z,18.47
2022-12-09T03:53:28.930Z,19.60
2022-12-09T03:56:04.464Z,20.07
2022-12-09T03:58:33.465Z,22.47
2022-12-09T04:00:57.517Z,22.37
2022-12-09T04:03:21.481Z,29.17
2022-12-09T04:05:45.210Z,26.20
2022-12-09T04:08:08.928Z,26.50
2022-12-09T04:10:32.620Z,25.57
2022-12-09T04:12:57.799Z,25.63
2022-12-09T04:15:21.453Z,24.70
2022-12-09T04:17:45.351Z,25.90
2022-12-09T04:20:10.824Z,24.80
2022-12-09T04:22:34.753Z,24.07
2022-12-09T04:24:58.327Z,22.47
2022-12-09T04:27:22.167Z,24.07
2022-12-09T04:29:47.119Z,22.40
2022-12-09T04:32:11.170Z,21.43
2022-12-09T04:34:35.412Z,21.33
2022-12-09T04:36:59.359Z,20.63
2022-12-09T04:39:22.957Z,20.20
2022-12-09T04:41:46.621Z,20.73
2022-12-09T04:44:10.253Z,20.13
2022-12-09T04:48:59.469Z,22.00
2022-12-09T04:51:23.041Z,19.80
2022-12-09T04:53:47.119Z,20.57
2022-12-09T04:56:14.545Z,20.63
2022-12-09T04:58:38.519Z,20.77
2022-12-09T05:01:08.247Z,21.07
2022-12-09T05:03:33.747Z,21.03
2022-12-09T05:05:57.869Z,20.77
2022-12-09T05:08:25.879Z,21.43
2022-12-09T05:10:53.950Z,19.73
2022-12-09T05:13:17.802Z,20.63
2022-12-09T05:15:41.590Z,21.27
2022-12-09T05:18:05.986Z,21.87
2022-12-09T05:20:31.182Z,20.33
2022-12-09T05:22:54.996Z,20.33
2022-12-09T05:25:18.765Z,20.00
2022-12-09T05:27:42.386Z,21.27
2022-12-09T05:30:07.793Z,18.90
2022-12-09T05:32:32.314Z,18.93
2022-12-09T05:34:56.406Z,19.47
2022-12-09T05:37:21.726Z,19.80
2022-12-09T05:39:45.403Z,20.23
2022-12-09T05:42:09.342Z,19.03
2022-12-09T05:44:33.384Z,19.93
2022-12-09T05:46:57.565Z,18.70
2022-12-09T05:49:21.439Z,19.67
2022-12-09T05:51:45.071Z,19.17
2022-12-09T05:54:10.382Z,20.40
2022-12-09T05:56:35.410Z,18.40
2022-12-09T05:59:00.267Z,19.70
2022-12-09T06:01:25.081Z,19.47
2022-12-09T06:03:49.266Z,19.23
2022-12-09T06:06:16.337Z,19.40
2022-12-09T06:08:41.334Z,19.83
2022-12-09T06:11:09.551Z,20.17
2022-12-09T06:13:33.485Z,20.40
2022-12-09T06:15:57.465Z,18.70
2022-12-09T06:18:21.363Z,20.43
2022-12-09T06:20:45.017Z,20.00
2022-12-09T06:23:09.230Z,18.37
2022-12-09T06:25:32.767Z,20.60
2022-12-09T06:27:57.961Z,19.83
2022-12-09T06:30:22.273Z,20.33
2022-12-09T06:32:46.077Z,20.27
2022-12-09T06:35:11.219Z,20.27
2022-12-09T06:37:35.088Z,21.40
2022-12-09T06:39:58.877Z,20.73
2022-12-09T06:42:22.531Z,20.73
2022-12-09T06:44:47.832Z,19.97
2022-12-09T06:47:11.864Z,20.03
2022-12-09T06:49:35.674Z,20.80
2022-12-09T06:51:59.978Z,21.50
2022-12-09T06:54:23.696Z,20.10
2022-12-09T06:56:47.312Z,20.87
2022-12-09T06:59:12.498Z,21.17
2022-12-09T07:01:39.866Z,21.77
2022-12-09T07:04:06.763Z,22.83
2022-12-09T07:06:34.562Z,24.03
2022-12-09T07:09:00.996Z,22.43
2022-12-09T07:11:25.180Z,22.70
2022-12-09T07:13:49.271Z,21.93
2022-12-09T07:16:13.412Z,23.13
2022-12-09T07:18:38.910Z,22.70
2022-12-09T07:21:09.306Z,23.57
2022-12-09T07:23:33.068Z,24.50
2022-12-09T07:25:58.547Z,24.33
2022-12-09T07:28:22.307Z,25.93
2022-12-09T07:30:46.245Z,24.30
2022-12-09T07:33:10.014Z,27.00
2022-12-09T07:35:35.476Z,26.87
2022-12-09T07:37:59.273Z,25.53
2022-12-09T07:40:23.396Z,28.77
2022-12-09T07:42:47.600Z,29.90
2022-12-09T07:45:16.594Z,27.70
2022-12-09T07:47:40.240Z,28.70
2022-12-09T07:50:06.742Z,27.83
2022-12-09T07:52:32.557Z,26.20
2022-12-09T07:54:59.351Z,26.00
2022-12-09T07:57:23.777Z,29.63
2022-12-09T07:59:47.492Z,31.17
2022-12-09T08:02:11.364Z,30.17
2022-12-09T08:04:36.980Z,26.63
2022-12-09T08:07:02.539Z,26.63
2022-12-09T08:09:28.270Z,26.70
2022-12-09T08:11:52.431Z,29.03
2022-12-09T08:14:16.311Z,28.93
2022-12-09T08:16:40.873Z,27.37
2022-12-09T08:19:05.366Z,28.73
2022-12-09T08:21:31.958Z,29.73
2022-12-09T08:23:57.592Z,29.53
2022-12-09T08:26:25.463Z,48.30
2022-12-09T08:28:50.181Z,37.60
2022-12-09T08:31:16.851Z,93.27
2022-12-09T08:33:41.694Z,75.83
2022-12-09T08:36:10.912Z,40.53
2022-12-09T08:38:34.614Z,55.00
2022-12-09T08:40:58.461Z,45.93
2022-12-09T08:43:23.391Z,41.37
2022-12-09T08:45:47.099Z,48.77
2022-12-09T08:48:11.395Z,37.60
2022-12-09T08:50:35.509Z,27.67
2022-12-09T08:52:59.659Z,27.30
2022-12-09T08:55:23.466Z,28.97
2022-12-09T08:57:47.102Z,27.00
2022-12-09T09:00:14.033Z,26.17
2022-12-09T09:02:38.622Z,46.90
2022-12-09T09:05:02.930Z,30.73
2022-12-09T09:07:27.118Z,38.33
2022-12-09T09:09:51.228Z,28.47
2022-12-09T09:12:15.386Z,28.67
2022-12-09T09:14:39.036Z,29.73
2022-12-09T09:17:04.406Z,29.13
2022-12-09T09:19:28.728Z,34.00
2022-12-09T09:21:52.521Z,32.23
2022-12-09T09:24:19.100Z,33.53
2022-12-09T09:26:44.274Z,31.40
2022-12-09T09:29:07.989Z,29.33
2022-12-09T09:31:31.815Z,34.33
2022-12-09T09:33:57.117Z,33.50
2022-12-09T09:36:24.144Z,34.20
2022-12-09T09:38:48.430Z,36.13
2022-12-09T09:41:27.072Z,30.97
2022-12-09T09:43:51.804Z,33.97
2022-12-09T09:46:23.537Z,35.87
2022-12-09T09:48:49.571Z,37.93
2022-12-09T09:51:19.343Z,38.03
2022-12-09T09:53:43.752Z,37.60
2022-12-09T09:56:17.810Z,38.00
2022-12-09T09:58:51.176Z,37.57
2022-12-09T10:01:17.962Z,39.83
2022-12-09T10:03:54.315Z,38.87
2022-12-09T10:06:34.261Z,38.97
2022-12-09T10:09:05.856Z,38.33
2022-12-09T10:11:38.506Z,40.10
2022-12-09T10:14:17.222Z,41.23
2022-12-09T10:16:46.592Z,39.57
2022-12-09T10:19:20.099Z,39.10
2022-12-09T10:21:48.836Z,42.13
2022-12-09T10:24:23.429Z,40.50
2022-12-09T10:26:58.530Z,40.87
2022-12-09T10:29:36.976Z,40.93
2022-12-09T10:32:00.984Z,38.30
2022-12-09T10:34:24.841Z,39.63
2022-12-09T10:36:51.274Z,41.00
2022-12-09T10:39:21.360Z,41.90
2022-12-09T10:42:08.434Z,39.23
2022-12-09T10:44:32.101Z,40.90
2022-12-09T10:47:01.452Z,40.37
2022-12-09T10:49:25.397Z,43.90
2022-12-09T10:51:54.090Z,42.60
2022-12-09T10:54:35.925Z,44.27
2022-12-09T10:57:08.193Z,44.90
2022-12-09T10:59:33.374Z,44.10
2022-12-09T11:01:59.697Z,47.00
2022-12-09T11:04:28.402Z,45.00
2022-12-09T11:06:59.444Z,46.80
2022-12-09T11:09:29.756Z,44.93
2022-12-09T11:11:53.578Z,44.53
2022-12-09T11:14:26.587Z,46.63
2022-12-09T11:16:52.822Z,42.47
2022-12-09T11:19:17.055Z,44.77
2022-12-09T11:21:42.305Z,41.67
2022-12-09T11:24:21.308Z,45.50
2022-12-09T11:26:45.227Z,43.73
2022-12-09T11:29:18.599Z,42.87
2022-12-09T11:31:43.668Z,41.73
2022-12-09T11:34:17.214Z,44.47
2022-12-09T11:36:49.615Z,41.63
2022-12-09T11:39:28.661Z,41.97
2022-12-09T11:42:17.011Z,39.37
2022-12-09T11:44:49.567Z,42.90
2022-12-09T11:47:21.236Z,39.33
2022-12-09T11:49:56.093Z,41.50
2022-12-09T11:52:30.784Z,39.17
2022-12-09T11:55:11.766Z,39.63
2022-12-09T11:57:42.517Z,46.53
2022-12-09T12:00:18.626Z,40.03
2022-12-09T12:02:47.381Z,40.37
2022-12-09T12:05:22.812Z,41.23
2022-12-09T12:07:54.250Z,41.40
2022-12-09T12:10:25.735Z,38.30
2022-12-09T12:13:02.455Z,36.77
2022-12-09T12:15:36.166Z,38.87
2022-12-09T12:18:05.475Z,36.67
2022-12-09T12:20:42.446Z,37.97
2022-12-09T12:23:28.147Z,36.70
2022-12-09T12:26:02.309Z,35.17
2022-12-09T12:29:11.119Z,35.73
2022-12-09T12:32:00.660Z,33.77
2022-12-09T12:34:38.932Z,34.33
2022-12-09T12:37:20.201Z,33.13
2022-12-09T12:40:05.522Z,33.63
2022-12-09T12:43:07.704Z,31.47
2022-12-09T12:45:59.869Z,32.40
2022-12-09T12:48:34.413Z,32.30
2022-12-09T12:51:11.224Z,31.70
2022-12-09T12:53:44.944Z,31.17
2022-12-09T12:56:14.889Z,30.40
2022-12-09T12:58:53.030Z,29.13
2022-12-09T13:01:30.099Z,32.07
2022-12-09T13:04:05.163Z,30.47
2022-12-09T13:06:40.856Z,29.73
2022-12-09T13:09:12.261Z,29.73
2022-12-09T13:11:55.517Z,29.63
2022-12-09T13:14:32.059Z,30.37
2022-12-09T13:16:56.016Z,29.97
2022-12-09T13:19:27.945Z,25.33
2022-12-09T13:21:51.871Z,28.27
2022-12-09T13:24:27.964Z,29.47
2022-12-09T13:27:01.214Z,27.90
2022-12-09T13:29:38.582Z,27.93
2022-12-09T13:32:18.229Z,25.53
2022-12-09T13:34:49.937Z,26.00
2022-12-09T13:37:37.990Z,27.20
2022-12-09T13:40:02.310Z,24.57
2022-12-09T13:42:56.269Z,25.77
2022-12-09T13:45:32.519Z,24.37
2022-12-09T13:47:57.724Z,29.40
2022-12-09T13:50:28.130Z,30.47
2022-12-09T13:52:54.492Z,29.90
2022-12-09T13:55:49.972Z,27.33
2022-12-09T13:58:45.398Z,27.30
2022-12-09T14:01:21.558Z,27.23
2022-12-09T14:04:07.855Z,28.73
2022-12-09T14:06:49.123Z,29.73
2022-12-09T14:09:30.172Z,24.93
2022-12-09T14:11:57.507Z,26.40
2022-12-09T14:14:52.798Z,25.60
2022-12-09T14:18:01.245Z,26.77
2022-12-09T14:20:31.473Z,21.57
2022-12-09T14:23:18.033Z,22.73
2022-12-09T14:26:11.899Z,22.60
2022-12-09T14:28:54.879Z,20.20
2022-12-09T14:32:00.203Z,19.43
2022-12-09T14:35:04.672Z,20.80
2022-12-09T14:37:51.954Z,20.27
2022-12-09T14:40:49.540Z,20.23
2022-12-09T14:43:49.728Z,19.20
2022-12-09T14:46:25.793Z,18.40
2022-12-09T14:48:56.675Z,19.83
2022-12-09T14:51:27.172Z,20.70
2022-12-09T14:53:56.465Z,20.00
2022-12-09T14:56:22.316Z,22.30
2022-12-09T14:58:50.275Z,24.57
2022-12-09T15:01:13.780Z,18.80
2022-12-09T15:03:45.240Z,20.47
2022-12-09T15:06:18.585Z,21.17
2022-12-09T15:08:43.983Z,20.83
2022-12-09T15:11:13.454Z,21.43
2022-12-09T15:13:37.938Z,21.47
2022-12-09T15:16:01.997Z,24.93
2022-12-09T15:18:27.013Z,23.23
2022-12-09T15:20:53.242Z,23.13
2022-12-09T15:23:22.526Z,23.20
2022-12-09T15:25:50.055Z,18.90
2022-12-09T15:28:21.460Z,19.17
2022-12-09T15:30:57.260Z,19.73
2022-12-09T15:33:21.703Z,18.63
2022-12-09T15:35:53.895Z,20.87
2022-12-09T15:38:17.810Z,20.93
2022-12-09T15:41:01.587Z,22.13
2022-12-09T15:43:26.724Z,21.30
2022-12-09T15:45:50.352Z,18.47
2022-12-09T15:48:18.524Z,17.90
2022-12-09T15:50:47.256Z,18.93
2022-12-09T15:53:17.127Z,19.27
2022-12-09T15:55:50.115Z,18.63
2022-12-09T15:58:16.318Z,18.80
2022-12-09T16:00:48.856Z,17.77
2022-12-09T16:03:12.552Z,19.03
2022-12-09T16:05:41.780Z,17.17
2022-12-09T16:08:05.881Z,17.03
2022-12-09T16:10:30.875Z,19.30
2022-12-09T16:13:11.113Z,20.23
2022-12-09T16:15:47.750Z,20.17
2022-12-09T16:18:19.793Z,19.33
2022-12-09T16:20:45.634Z,20.57
2022-12-09T16:23:23.004Z,24.50
2022-12-09T16:25:50.181Z,22.73
2022-12-09T16:28:22.530Z,21.77
2022-12-09T16:30:49.468Z,23.63
2022-12-09T16:33:19.174Z,15.93
2022-12-09T16:35:46.128Z,14.50
2022-12-09T16:38:20.959Z,15.47
2022-12-09T16:41:11.307Z,14.77
2022-12-09T16:43:35.826Z,15.77
2022-12-09T16:46:03.590Z,15.27
2022-12-09T16:48:29.661Z,13.93
2022-12-09T16:50:57.821Z,16.53
2022-12-09T16:53:24.729Z,16.43
2022-12-09T16:55:53.814Z,15.47
2022-12-09T16:58:17.432Z,15.77
2022-12-09T17:00:41.019Z,13.70
2022-12-09T17:03:10.141Z,12.40
2022-12-09T17:05:33.760Z,13.90
2022-12-09T17:07:57.505Z,14.60
2022-12-09T17:10:21.103Z,14.80
2022-12-09T17:12:45.333Z,14.87
2022-12-09T17:15:11.425Z,13.33
2022-12-09T17:17:34.988Z,13.57
2022-12-09T17:20:00.100Z,13.70
2022-12-09T17:22:24.008Z,15.43
2022-12-09T17:24:47.549Z,15.00
2022-12-09T17:27:11.165Z,13.60
2022-12-09T17:29:34.769Z,15.60
2022-12-09T17:31:58.433Z,15.23
2022-12-09T17:34:22.098Z,16.00
2022-12-09T17:36:47.360Z,15.57
2022-12-09T17:39:12.693Z,16.03
2022-12-09T17:41:36.331Z,15.77
2022-12-09T17:44:01.634Z,16.93
2022-12-09T17:46:25.745Z,17.23
2022-12-09T17:48:49.266Z,17.57
2022-12-09T17:51:17.813Z,17.47
2022-12-09T17:53:44.657Z,18.13
2022-12-09T17:56:10.728Z,17.77
2022-12-09T17:58:34.302Z,18.47
2022-12-09T18:00:57.892Z,16.27
2022-12-09T18:03:39.429Z,17.27
2022-12-09T18:06:05.124Z,15.97
2022-12-09T18:08:30.533Z,17.77
2022-12-09T18:10:55.633Z,18.47
2022-12-09T18:13:19.188Z,19.97
2022-12-09T18:15:42.777Z,21.50
2022-12-09T18:18:06.429Z,20.83
2022-12-09T18:20:29.988Z,20.87
2022-12-09T18:22:54.014Z,19.93
2022-12-09T18:25:17.780Z,18.77
2022-12-09T18:27:42.707Z,18.83
2022-12-09T18:30:08.367Z,18.43
2022-12-09T18:32:36.045Z,17.83
2022-12-09T18:34:59.908Z,19.77
2022-12-09T18:37:25.761Z,17.97
2022-12-09T18:39:49.366Z,17.57
2022-12-09T18:42:12.930Z,18.30
2022-12-09T18:44:38.253Z,17.80
2022-12-09T18:47:01.795Z,18.60
2022-12-09T18:49:28.515Z,18.53
2022-12-09T18:51:53.409Z,19.20
2022-12-09T18:54:19.835Z,17.47
2022-12-09T18:56:43.413Z,18.27
2022-12-09T18:59:08.556Z,18.53
2022-12-09T19:01:35.648Z,17.80
2022-12-09T19:04:01.899Z,18.77
2022-12-09T19:06:27.335Z,17.70
2022-12-09T19:08:54.323Z,19.70
2022-12-09T19:11:17.862Z,17.50
2022-12-09T19:13:41.480Z,17.30
2022-12-09T19:16:06.502Z,16.47
2022-12-09T19:18:31.573Z,16.77
2022-12-09T19:20:56.410Z,17.70
2022-12-09T19:23:20.044Z,16.17
2022-12-09T19:25:43.587Z,15.37
2022-12-09T19:28:08.864Z,17.13
2022-12-09T19:30:32.377Z,16.27
2022-12-09T19:32:55.993Z,15.53
2022-12-09T19:35:20.973Z,17.67
2022-12-09T19:37:44.546Z,17.20
2022-12-09T19:40:10.486Z,24.30
2022-12-09T19:42:34.202Z,20.10
2022-12-09T19:45:02.138Z,18.70
2022-12-09T19:47:26.748Z,16.07
2022-12-09T19:49:50.271Z,17.93
2022-12-09T19:52:15.247Z,18.37
2022-12-09T19:54:39.164Z,16.20
2022-12-09T19:57:02.793Z,19.57
2022-12-09T19:59:27.500Z,19.77
2022-12-09T20:01:51.515Z,19.60
2022-12-09T20:04:47.698Z,19.60
2022-12-09T20:07:06.401Z,16.80
2022-12-09T20:09:33.023Z,15.20
2022-12-09T20:11:56.609Z,16.13
2022-12-09T20:14:20.127Z,15.13
2022-12-09T20:16:43.800Z,13.77
2022-12-09T20:19:07.442Z,14.33
2022-12-09T20:21:32.707Z,13.40
2022-12-09T20:23:56.210Z,15.07
2022-12-09T20:26:23.955Z,14.90
2022-12-09T20:28:50.496Z,14.43
2022-12-09T20:31:17.090Z,15.30
2022-12-09T20:33:41.705Z,15.53
2022-12-09T20:36:10.378Z,14.93
2022-12-09T20:38:34.946Z,12.53
2022-12-09T20:40:58.562Z,15.13
2022-12-09T20:43:23.424Z,15.47
2022-12-09T20:45:47.044Z,14.83
2022-12-09T20:48:10.592Z,14.37
2022-12-09T20:50:38.652Z,14.67
2022-12-09T20:53:02.564Z,12.20
2022-12-09T20:55:26.215Z,14.57
2022-12-09T20:57:49.796Z,14.47
2022-12-09T21:00:16.042Z,15.07
2022-12-09T21:02:40.116Z,14.00
2022-12-09T21:05:03.713Z,13.50
2022-12-09T21:07:27.229Z,20.13
2022-12-09T21:09:50.819Z,18.17
2022-12-09T21:12:14.339Z,17.23
2022-12-09T21:14:37.903Z,18.47
2022-12-09T21:17:04.268Z,18.23
2022-12-09T21:19:30.375Z,21.20
2022-12-09T21:21:54.540Z,13.00
2022-12-09T21:24:20.381Z,14.63
2022-12-09T21:26:44.088Z,11.10
2022-12-09T21:29:08.523Z,14.13
2022-12-09T21:31:34.199Z,16.67
2022-12-09T21:34:03.045Z,14.17
2022-12-09T21:36:29.308Z,16.70
2022-12-09T21:38:54.143Z,17.73
2022-12-09T21:41:20.588Z,17.20
2022-12-09T21:43:45.421Z,18.43
2022-12-09T21:46:12.876Z,17.97
2022-12-09T21:48:37.292Z,19.13
2022-12-09T21:51:03.887Z,15.93
2022-12-09T21:53:27.949Z,17.00
2022-12-09T21:55:52.180Z,16.07
2022-12-09T21:58:15.988Z,16.00
2022-12-09T22:00:39.639Z,14.23
2022-12-09T22:03:03.231Z,14.33
2022-12-09T22:05:26.860Z,12.83
2022-12-09T22:07:52.096Z,13.20
2022-12-09T22:10:15.713Z,14.23
2022-12-09T22:12:39.282Z,13.73
2022-12-09T22:15:02.951Z,13.47
2022-12-09T22:17:26.507Z,14.60
2022-12-09T22:20:13.653Z,15.53
2022-12-09T22:22:34.829Z,15.47
2022-12-09T22:24:59.690Z,16.60
2022-12-09T22:27:23.273Z,14.77
2022-12-09T22:29:46.782Z,14.70
2022-12-09T22:32:10.398Z,16.17
2022-12-09T22:34:33.940Z,13.93
2022-12-09T22:36:57.507Z,12.93
2022-12-09T22:39:22.890Z,14.23
2022-12-09T22:41:48.112Z,12.57
2022-12-09T22:44:13.957Z,14.30
2022-12-09T22:46:37.579Z,14.77
2022-12-09T22:49:04.656Z,14.70
2022-12-09T22:51:30.717Z,14.57
2022-12-09T22:53:56.355Z,14.17
2022-12-09T22:56:21.922Z,17.83
2022-12-09T22:58:47.171Z,15.80
2022-12-09T23:01:12.295Z,16.03
2022-12-09T23:03:35.855Z,15.90
2022-12-09T23:06:02.642Z,15.23
2022-12-09T23:08:26.205Z,16.23
2022-12-09T23:10:50.337Z,16.10
2022-12-09T23:13:13.879Z,17.23
2022-12-09T23:15:39.046Z,15.70
2022-12-09T23:18:03.084Z,14.13
2022-12-09T23:20:26.855Z,15.60
2022-12-09T23:22:50.385Z,15.23
2022-12-09T23:25:13.987Z,15.17
2022-12-09T23:27:37.514Z,15.07
2022-12-09T23:30:01.063Z,15.10
2022-12-09T23:32:26.052Z,14.00
2022-12-09T23:34:49.613Z,15.80
2022-12-09T23:37:14.335Z,16.20
2022-12-09T23:39:37.879Z,15.57
2022-12-09T23:42:01.377Z,14.40
2022-12-09T23:44:24.981Z,14.70
2022-12-09T23:46:48.987Z,14.37
2022-12-09T23:49:14.091Z,14.10
2022-12-09T23:51:43.386Z,13.73
2022-12-09T23:54:09.469Z,13.37
2022-12-09T23:56:39.872Z,14.03
2022-12-09T23:59:06.304Z,12.97
